createdAt,value
2018-12-30T13:13:17.400Z,1026.70
2018-12-30T13:14:17.363Z,1026.73
2018-12-30T13:15:17.399Z,1026.70
2018-12-30T13:16:17.341Z,1026.66
2018-12-30T13:17:17.336Z,1026.65
2018-12-30T13:18:17.324Z,1026.68
2018-12-30T13:19:17.346Z,1026.66
2018-12-30T13:20:17.331Z,1026.68
2018-12-30T13:21:17.285Z,1026.72
2018-12-30T13:22:17.301Z,1026.76
2018-12-30T13:23:17.265Z,1026.77
2018-12-30T13:24:17.265Z,1026.78
2018-12-30T13:25:17.268Z,1026.74
2018-12-30T13:26:17.249Z,1026.74
2018-12-30T13:27:17.233Z,1026.78
2018-12-30T13:28:17.243Z,1026.72
2018-12-30T13:29:17.225Z,1026.70
2018-12-30T13:30:17.310Z,1026.74
2018-12-30T13:31:17.308Z,1026.78
2018-12-30T13:32:17.169Z,1026.77
2018-12-30T13:33:17.163Z,1026.77
2018-12-30T13:34:18.977Z,1026.76
2018-12-30T13:35:17.264Z,1026.80
2018-12-30T13:36:17.142Z,1026.82
2018-12-30T13:37:17.123Z,1026.77
2018-12-30T13:38:17.227Z,1026.79
2018-12-30T13:39:17.107Z,1026.75
2018-12-30T13:40:17.115Z,1026.72
2018-12-30T13:41:17.103Z,1026.68
2018-12-30T13:42:17.072Z,1026.70
2018-12-30T13:43:17.081Z,1026.72
2018-12-30T13:44:17.059Z,1026.69
2018-12-30T13:45:17.032Z,1026.66
2018-12-30T13:46:17.067Z,1026.67
2018-12-30T13:47:17.054Z,1026.72
2018-12-30T13:48:17.051Z,1026.73
2018-12-30T13:49:17.000Z,1026.77
2018-12-30T13:50:16.983Z,1026.76
2018-12-30T13:51:17.035Z,1026.74
2018-12-30T13:52:16.966Z,1026.73
2018-12-30T13:53:16.948Z,1026.74
2018-12-30T13:54:16.963Z,1026.76
2018-12-30T13:55:16.940Z,1026.76
2018-12-30T13:56:16.963Z,1026.76
2018-12-30T13:57:16.927Z,1026.73
2018-12-30T13:58:16.956Z,1026.72
2018-12-30T13:59:16.892Z,1026.70
2018-12-30T14:00:16.881Z,1026.74
2018-12-30T14:01:16.904Z,1026.75
2018-12-30T14:02:16.862Z,1026.69
2018-12-30T14:03:16.845Z,1026.74
2018-12-30T14:04:16.832Z,1026.75
2018-12-30T14:05:16.821Z,1026.80
2018-12-30T14:06:16.876Z,1026.84
2018-12-30T14:07:16.886Z,1026.83
2018-12-30T14:08:16.793Z,1026.85
2018-12-30T14:09:16.792Z,1026.83
2018-12-30T14:10:16.877Z,1026.85
2018-12-30T14:11:16.824Z,1026.85
2018-12-30T14:12:16.890Z,1026.82
2018-12-30T14:13:16.807Z,1026.85
2018-12-30T14:14:16.734Z,1026.89
2018-12-30T14:15:16.763Z,1026.89
2018-12-30T14:16:16.755Z,1026.91
2018-12-30T14:17:16.727Z,1026.89
2018-12-30T14:18:16.694Z,1026.91
2018-12-30T14:19:16.672Z,1026.93
2018-12-30T14:20:16.664Z,1026.91
2018-12-30T14:21:16.771Z,1026.98
2018-12-30T14:22:16.671Z,1026.97
2018-12-30T14:23:16.650Z,1026.99
2018-12-30T14:24:16.649Z,1027.00
2018-12-30T14:25:16.635Z,1027.00
2018-12-30T14:26:16.606Z,1026.99
2018-12-30T14:27:16.601Z,1026.98
2018-12-30T14:28:16.610Z,1026.99
2018-12-30T14:29:16.573Z,1026.95
2018-12-30T14:30:16.575Z,1026.87
2018-12-30T14:31:16.549Z,1026.93
2018-12-30T14:32:16.559Z,1026.89
2018-12-30T14:33:16.587Z,1026.89
2018-12-30T14:34:16.530Z,1026.95
2018-12-30T14:35:16.508Z,1026.97
2018-12-30T14:36:16.512Z,1027.00
2018-12-30T14:37:17.162Z,1026.97
2018-12-30T14:38:16.579Z,1026.96
2018-12-30T14:39:16.462Z,1026.94
2018-12-30T14:40:16.450Z,1026.92
2018-12-30T14:41:16.495Z,1026.95
2018-12-30T14:42:16.433Z,1026.95
2018-12-30T14:43:16.456Z,1026.96
2018-12-30T14:44:16.410Z,1026.96
2018-12-30T14:45:16.503Z,1027.00
2018-12-30T14:46:16.401Z,1027.00
2018-12-30T14:47:16.382Z,1027.00
2018-12-30T14:48:16.392Z,1027.00
2018-12-30T14:49:16.391Z,1027.02
2018-12-30T14:50:16.374Z,1026.96
2018-12-30T14:51:16.344Z,1026.97
2018-12-30T14:52:16.324Z,1027.00
2018-12-30T14:53:19.336Z,1027.07
2018-12-30T14:54:16.342Z,1027.08
2018-12-30T14:55:16.343Z,1027.11
2018-12-30T14:56:16.286Z,1027.07
2018-12-30T14:57:16.274Z,1026.97
2018-12-30T14:58:16.349Z,1026.92
2018-12-30T14:59:16.274Z,1026.86
2018-12-30T15:00:16.252Z,1026.86
2018-12-30T15:01:16.352Z,1026.87
2018-12-30T15:02:16.219Z,1026.83
2018-12-30T15:03:16.272Z,1026.79
2018-12-30T15:04:16.311Z,1026.78
2018-12-30T15:05:16.253Z,1026.73
2018-12-30T15:06:16.191Z,1026.70
2018-12-30T15:07:16.210Z,1026.70
2018-12-30T15:08:16.200Z,1026.71
2018-12-30T15:09:16.208Z,1026.74
2018-12-30T15:10:16.133Z,1026.70
2018-12-30T15:11:16.120Z,1026.68
2018-12-30T15:12:16.110Z,1026.68
2018-12-30T15:13:16.102Z,1026.66
2018-12-30T15:14:16.123Z,1026.59
2018-12-30T15:15:16.154Z,1026.67
2018-12-30T15:16:16.079Z,1026.70
2018-12-30T15:17:16.087Z,1026.70
2018-12-30T15:18:16.077Z,1026.72
2018-12-30T15:19:16.072Z,1026.75
2018-12-30T15:20:16.030Z,1026.71
2018-12-30T15:21:16.082Z,1026.74
2018-12-30T15:22:16.008Z,1026.76
2018-12-30T15:23:15.998Z,1026.73
2018-12-30T15:24:16.020Z,1026.74
2018-12-30T15:25:16.001Z,1026.72
2018-12-30T15:26:15.967Z,1026.71
2018-12-30T15:27:15.992Z,1026.65
2018-12-30T15:28:15.954Z,1026.63
2018-12-30T15:29:15.998Z,1026.62
2018-12-30T15:30:15.944Z,1026.66
2018-12-30T15:31:15.943Z,1026.68
2018-12-30T15:32:15.905Z,1026.65
2018-12-30T15:33:15.938Z,1026.65
2018-12-30T15:34:16.014Z,1026.68
2018-12-30T15:35:15.882Z,1026.63
2018-12-30T15:36:15.869Z,1026.63
2018-12-30T15:37:15.852Z,1026.65
2018-12-30T15:38:15.903Z,1026.67
2018-12-30T15:39:15.888Z,1026.65
2018-12-30T15:40:15.813Z,1026.70
2018-12-30T15:41:15.807Z,1026.73
2018-12-30T15:42:18.937Z,1026.74
2018-12-30T15:43:15.784Z,1026.72
2018-12-30T15:44:15.807Z,1026.75
2018-12-30T15:45:15.808Z,1026.73
2018-12-30T15:46:17.118Z,1026.75
2018-12-30T15:47:15.795Z,1026.83
2018-12-30T15:48:16.636Z,1026.80
2018-12-30T15:49:15.760Z,1026.82
2018-12-30T15:50:15.728Z,1026.86
2018-12-30T15:51:15.741Z,1026.89
2018-12-30T15:52:15.690Z,1026.87
2018-12-30T15:53:15.686Z,1026.85
2018-12-30T15:54:15.795Z,1026.83
2018-12-30T15:55:19.436Z,1026.82
2018-12-30T15:56:15.692Z,1026.74
2018-12-30T15:57:15.635Z,1026.79
2018-12-30T15:58:15.695Z,1026.74
2018-12-30T15:59:15.612Z,1026.73
2018-12-30T16:00:15.632Z,1026.75
2018-12-30T16:01:15.586Z,1026.69
2018-12-30T16:02:15.596Z,1026.72
2018-12-30T16:03:15.572Z,1026.72
2018-12-30T16:04:15.650Z,1026.72
2018-12-30T16:05:15.581Z,1026.77
2018-12-30T16:06:15.550Z,1026.74
2018-12-30T16:07:15.590Z,1026.74
2018-12-30T16:08:15.519Z,1026.72
2018-12-30T16:09:15.515Z,1026.74
2018-12-30T16:10:15.537Z,1026.77
2018-12-30T16:11:15.492Z,1026.76
2018-12-30T16:12:15.469Z,1026.80
2018-12-30T16:13:15.464Z,1026.82
2018-12-30T16:14:15.447Z,1026.80
2018-12-30T16:15:15.445Z,1026.78
2018-12-30T16:16:15.469Z,1026.69
2018-12-30T16:17:15.443Z,1026.69
2018-12-30T16:18:15.415Z,1026.65
2018-12-30T16:19:15.406Z,1026.62
2018-12-30T16:20:15.420Z,1026.59
2018-12-30T16:21:15.482Z,1026.56
2018-12-30T16:22:15.394Z,1026.50
2018-12-30T16:23:15.360Z,1026.49
2018-12-30T16:24:15.410Z,1026.48
2018-12-30T16:25:15.332Z,1026.49
2018-12-30T16:26:15.346Z,1026.43
2018-12-30T16:27:15.362Z,1026.45
2018-12-30T16:28:15.301Z,1026.36
2018-12-30T16:29:15.291Z,1026.35
2018-12-30T16:30:15.291Z,1026.35
2018-12-30T16:31:15.294Z,1026.34
2018-12-30T16:32:15.365Z,1026.33
2018-12-30T16:33:15.276Z,1026.34
2018-12-30T16:34:15.305Z,1026.37
2018-12-30T16:35:15.226Z,1026.31
2018-12-30T16:36:15.221Z,1026.34
2018-12-30T16:37:15.224Z,1026.29
2018-12-30T16:38:15.220Z,1026.27
2018-12-30T16:39:15.245Z,1026.25
2018-12-30T16:40:15.169Z,1026.25
2018-12-30T16:41:15.157Z,1026.22
2018-12-30T16:42:15.308Z,1026.23
2018-12-30T16:43:15.161Z,1026.30
2018-12-30T16:44:15.190Z,1026.35
2018-12-30T16:45:15.115Z,1026.27
2018-12-30T16:46:15.107Z,1026.32
2018-12-30T16:47:15.109Z,1026.29
2018-12-30T16:48:15.261Z,1026.29
2018-12-30T16:49:15.084Z,1026.30
2018-12-30T16:50:15.066Z,1026.33
2018-12-30T16:51:15.157Z,1026.32
2018-12-30T16:52:15.040Z,1026.30
2018-12-30T16:53:15.063Z,1026.31
2018-12-30T16:54:15.032Z,1026.30
2018-12-30T16:55:15.019Z,1026.32
2018-12-30T16:56:15.136Z,1026.33
2018-12-30T16:57:15.009Z,1026.25
2018-12-30T16:58:15.024Z,1026.25
2018-12-30T16:59:15.022Z,1026.25
2018-12-30T17:00:15.047Z,1026.26
2018-12-30T17:01:14.973Z,1026.26
2018-12-30T17:02:15.085Z,1026.29
2018-12-30T17:03:14.921Z,1026.31
2018-12-30T17:04:14.934Z,1026.23
2018-12-30T17:05:14.900Z,1026.24
2018-12-30T17:06:15.007Z,1026.31
2018-12-30T17:07:14.917Z,1026.35
2018-12-30T17:08:14.883Z,1026.38
2018-12-30T17:09:14.922Z,1026.38
2018-12-30T17:10:14.848Z,1026.37
2018-12-30T17:11:14.861Z,1026.36
2018-12-30T17:12:14.849Z,1026.35
2018-12-30T17:13:14.814Z,1026.34
2018-12-30T17:14:14.887Z,1026.38
2018-12-30T17:15:14.820Z,1026.39
2018-12-30T17:16:14.952Z,1026.31
2018-12-30T17:17:14.791Z,1026.40
2018-12-30T17:18:14.872Z,1026.38
2018-12-30T17:19:14.753Z,1026.39
2018-12-30T17:20:14.910Z,1026.40
2018-12-30T17:21:14.738Z,1026.39
2018-12-30T17:22:14.758Z,1026.37
2018-12-30T17:23:14.731Z,1026.44
2018-12-30T17:24:14.753Z,1026.41
2018-12-30T17:25:14.720Z,1026.39
2018-12-30T17:26:14.683Z,1026.44
2018-12-30T17:27:14.668Z,1026.43
2018-12-30T17:28:14.659Z,1026.45
2018-12-30T17:29:14.644Z,1026.45
2018-12-30T17:30:14.672Z,1026.43
2018-12-30T17:31:14.644Z,1026.47
2018-12-30T17:32:14.637Z,1026.47
2018-12-30T17:33:14.702Z,1026.50
2018-12-30T17:34:14.703Z,1026.52
2018-12-30T17:35:14.630Z,1026.51
2018-12-30T17:36:14.617Z,1026.53
2018-12-30T17:37:14.578Z,1026.53
2018-12-30T17:38:14.611Z,1026.51
2018-12-30T17:39:14.546Z,1026.49
2018-12-30T17:40:14.529Z,1026.49
2018-12-30T17:41:14.520Z,1026.50
2018-12-30T17:42:14.529Z,1026.47
2018-12-30T17:43:14.495Z,1026.48
2018-12-30T17:44:14.563Z,1026.47
2018-12-30T17:45:14.490Z,1026.45
2018-12-30T17:46:18.380Z,1026.41
2018-12-30T17:47:14.650Z,1026.41
2018-12-30T17:48:14.440Z,1026.41
2018-12-30T17:49:14.549Z,1026.43
2018-12-30T17:50:14.468Z,1026.47
2018-12-30T17:51:14.424Z,1026.48
2018-12-30T17:52:14.464Z,1026.49
2018-12-30T17:53:14.387Z,1026.52
2018-12-30T17:54:15.267Z,1026.51
2018-12-30T17:55:14.368Z,1026.48
2018-12-30T17:56:14.362Z,1026.45
2018-12-30T17:57:14.492Z,1026.42
2018-12-30T17:58:14.332Z,1026.43
2018-12-30T17:59:14.442Z,1026.46
2018-12-30T18:00:14.336Z,1026.46
2018-12-30T18:01:14.340Z,1026.45
2018-12-30T18:02:14.296Z,1026.44
2018-12-30T18:03:14.311Z,1026.44
2018-12-30T18:04:14.339Z,1026.44
2018-12-30T18:05:14.259Z,1026.42
2018-12-30T18:06:14.261Z,1026.42
2018-12-30T18:07:14.247Z,1026.37
2018-12-30T18:08:14.248Z,1026.44
2018-12-30T18:09:14.260Z,1026.42
2018-12-30T18:10:14.219Z,1026.42
2018-12-30T18:11:14.195Z,1026.39
2018-12-30T18:12:14.230Z,1026.38
2018-12-30T18:13:14.175Z,1026.38
2018-12-30T18:14:14.218Z,1026.38
2018-12-30T18:15:14.152Z,1026.41
2018-12-30T18:16:14.223Z,1026.30
2018-12-30T18:17:14.131Z,1026.33
2018-12-30T18:18:14.124Z,1026.37
2018-12-30T18:19:14.119Z,1026.36
2018-12-30T18:20:14.364Z,1026.37
2018-12-30T18:21:14.096Z,1026.40
2018-12-30T18:22:14.086Z,1026.29
2018-12-30T18:23:14.112Z,1026.33
2018-12-30T18:24:14.080Z,1026.32
2018-12-30T18:25:14.082Z,1026.35
2018-12-30T18:26:14.049Z,1026.37
2018-12-30T18:27:14.037Z,1026.40
2018-12-30T18:28:14.014Z,1026.39
2018-12-30T18:29:14.010Z,1026.44
2018-12-30T18:30:13.999Z,1026.40
2018-12-30T18:31:14.024Z,1026.38
2018-12-30T18:32:13.984Z,1026.39
2018-12-30T18:33:13.982Z,1026.38
2018-12-30T18:34:13.953Z,1026.36
2018-12-30T18:35:13.944Z,1026.38
2018-12-30T18:36:13.967Z,1026.42
2018-12-30T18:37:13.923Z,1026.38
2018-12-30T18:38:13.909Z,1026.36
2018-12-30T18:39:13.912Z,1026.39
2018-12-30T18:40:13.900Z,1026.37
2018-12-30T18:41:13.923Z,1026.37
2018-12-30T18:42:13.865Z,1026.33
2018-12-30T18:43:13.855Z,1026.31
2018-12-30T18:44:13.844Z,1026.41
2018-12-30T18:45:13.840Z,1026.40
2018-12-30T18:46:13.858Z,1026.42
2018-12-30T18:47:13.821Z,1026.42
2018-12-30T18:48:13.797Z,1026.41
2018-12-30T18:49:13.789Z,1026.40
2018-12-30T18:50:13.786Z,1026.39
2018-12-30T18:51:13.769Z,1026.39
2018-12-30T18:52:13.788Z,1026.41
2018-12-30T18:53:13.755Z,1026.44
2018-12-30T18:54:13.739Z,1026.44
2018-12-30T18:55:13.746Z,1026.45
2018-12-30T18:56:13.720Z,1026.47
2018-12-30T18:57:13.745Z,1026.47
2018-12-30T18:58:13.695Z,1026.43
2018-12-30T18:59:13.706Z,1026.43
2018-12-30T19:00:13.670Z,1026.44
2018-12-30T19:01:13.665Z,1026.44
2018-12-30T19:02:13.670Z,1026.41
2018-12-30T19:03:13.677Z,1026.41
2018-12-30T19:04:13.660Z,1026.47
2018-12-30T19:05:13.617Z,1026.46
2018-12-30T19:06:13.659Z,1026.47
2018-12-30T19:07:13.600Z,1026.49
2018-12-30T19:08:13.642Z,1026.53
2018-12-30T19:09:13.735Z,1026.48
2018-12-30T19:10:13.604Z,1026.46
2018-12-30T19:11:13.552Z,1026.50
2018-12-30T19:12:13.547Z,1026.47
2018-12-30T19:13:13.537Z,1026.40
2018-12-30T19:14:13.562Z,1026.42
2018-12-30T19:15:13.512Z,1026.37
2018-12-30T19:16:13.503Z,1026.41
2018-12-30T19:17:13.519Z,1026.39
2018-12-30T19:18:13.483Z,1026.34
2018-12-30T19:19:13.516Z,1026.35
2018-12-30T19:20:13.457Z,1026.31
2018-12-30T19:21:13.452Z,1026.34
2018-12-30T19:22:13.459Z,1026.31
2018-12-30T19:23:13.442Z,1026.32
2018-12-30T19:24:13.491Z,1026.37
2018-12-30T19:25:13.418Z,1026.38
2018-12-30T19:26:14.437Z,1026.35
2018-12-30T19:27:13.397Z,1026.34
2018-12-30T19:28:13.394Z,1026.35
2018-12-30T19:29:13.366Z,1026.29
2018-12-30T19:30:13.395Z,1026.33
2018-12-30T19:31:13.351Z,1026.31
2018-12-30T19:32:13.378Z,1026.34
2018-12-30T19:33:13.329Z,1026.32
2018-12-30T19:34:13.317Z,1026.34
2018-12-30T19:35:13.345Z,1026.35
2018-12-30T19:36:13.289Z,1026.30
2018-12-30T19:37:13.278Z,1026.30
2018-12-30T19:38:13.300Z,1026.30
2018-12-30T19:39:13.298Z,1026.30
2018-12-30T19:40:13.244Z,1026.21
2018-12-30T19:41:13.274Z,1026.19
2018-12-30T19:42:13.224Z,1026.18
2018-12-30T19:43:13.294Z,1026.14
2018-12-30T19:44:13.204Z,1026.18
2018-12-30T19:45:13.219Z,1026.17
2018-12-30T19:46:13.230Z,1026.17
2018-12-30T19:47:13.170Z,1026.14
2018-12-30T19:48:13.158Z,1026.15
2018-12-30T19:49:13.166Z,1026.16
2018-12-30T19:50:13.145Z,1026.14
2018-12-30T19:51:13.180Z,1026.18
2018-12-30T19:52:13.129Z,1026.18
2018-12-30T19:53:13.124Z,1026.20
2018-12-30T19:54:13.112Z,1026.17
2018-12-30T19:55:13.081Z,1026.18
2018-12-30T19:56:13.080Z,1026.19
2018-12-30T19:57:13.097Z,1026.17
2018-12-30T19:58:13.079Z,1026.16
2018-12-30T19:59:13.187Z,1026.13
2018-12-30T20:00:13.146Z,1026.10
2018-12-30T20:01:13.072Z,1026.08
2018-12-30T20:02:13.063Z,1026.06
2018-12-30T20:03:13.029Z,1026.05
2018-12-30T20:04:12.997Z,1026.10
2018-12-30T20:05:12.987Z,1026.06
2018-12-30T20:06:12.979Z,1026.06
2018-12-30T20:07:12.963Z,1026.09
2018-12-30T20:08:12.972Z,1026.09
2018-12-30T20:09:12.969Z,1026.06
2018-12-30T20:10:12.921Z,1026.07
2018-12-30T20:11:12.911Z,1026.03
2018-12-30T20:12:12.905Z,1026.06
2018-12-30T20:13:12.922Z,1026.01
2018-12-30T20:14:12.894Z,1026.03
2018-12-30T20:15:12.869Z,1026.01
2018-12-30T20:16:12.858Z,1026.01
2018-12-30T20:17:12.853Z,1026.00
2018-12-30T20:18:12.835Z,1025.98
2018-12-30T20:19:12.858Z,1025.96
2018-12-30T20:20:12.836Z,1025.98
2018-12-30T20:21:12.809Z,1026.06
2018-12-30T20:22:12.800Z,1026.00
2018-12-30T20:23:13.528Z,1026.04
2018-12-30T20:24:12.800Z,1026.03
2018-12-30T20:25:12.761Z,1026.05
2018-12-30T20:26:12.765Z,1026.08
2018-12-30T20:27:12.741Z,1026.06
2018-12-30T20:28:12.729Z,1026.07
2018-12-30T20:29:12.745Z,1026.07
2018-12-30T20:30:12.710Z,1026.08
2018-12-30T20:31:12.702Z,1026.08
2018-12-30T20:32:12.710Z,1026.08
2018-12-30T20:33:12.674Z,1026.07
2018-12-30T20:34:12.698Z,1026.06
2018-12-30T20:35:12.653Z,1026.03
2018-12-30T20:36:12.644Z,1026.03
2018-12-30T20:37:12.635Z,1025.98
2018-12-30T20:38:12.646Z,1026.01
2018-12-30T20:39:12.640Z,1026.03
2018-12-30T20:40:12.603Z,1026.00
2018-12-30T20:41:12.596Z,1026.03
2018-12-30T20:42:12.586Z,1026.10
2018-12-30T20:43:12.569Z,1026.09
2018-12-30T20:44:12.639Z,1026.08
2018-12-30T20:45:12.552Z,1026.04
2018-12-30T20:46:12.541Z,1026.03
2018-12-30T20:47:12.532Z,1026.01
2018-12-30T20:48:12.535Z,1026.06
2018-12-30T20:49:12.508Z,1026.03
2018-12-30T20:50:12.549Z,1026.06
2018-12-30T20:51:12.485Z,1026.02
2018-12-30T20:52:12.478Z,1026.01
2018-12-30T20:53:12.461Z,1026.02
2018-12-30T20:54:12.454Z,1025.99
2018-12-30T20:55:12.486Z,1026.02
2018-12-30T20:56:12.454Z,1026.01
2018-12-30T20:57:12.422Z,1025.99
2018-12-30T20:58:12.414Z,1026.01
2018-12-30T20:59:12.397Z,1026.02
2018-12-30T21:00:12.388Z,1026.04
2018-12-30T21:01:12.405Z,1026.04
2018-12-30T21:02:12.396Z,1026.04
2018-12-30T21:03:12.358Z,1026.01
2018-12-30T21:04:12.346Z,1026.03
2018-12-30T21:05:12.334Z,1026.05
2018-12-30T21:06:12.361Z,1026.05
2018-12-30T21:07:12.312Z,1026.00
2018-12-30T21:08:12.315Z,1026.05
2018-12-30T21:09:12.292Z,1026.00
2018-12-30T21:10:12.280Z,1026.05
2018-12-30T21:11:12.297Z,1025.99
2018-12-30T21:12:12.259Z,1026.04
2018-12-30T21:13:12.256Z,1026.03
2018-12-30T21:14:12.256Z,1026.02
2018-12-30T21:15:12.228Z,1026.00
2018-12-30T21:16:12.265Z,1026.07
2018-12-30T21:17:12.207Z,1026.01
2018-12-30T21:18:12.252Z,1025.99
2018-12-30T21:19:12.186Z,1026.02
2018-12-30T21:20:12.177Z,1025.98
2018-12-30T21:21:12.202Z,1025.98
2018-12-30T21:22:12.154Z,1026.00
2018-12-30T21:23:12.142Z,1025.98
2018-12-30T21:24:12.131Z,1026.00
2018-12-30T21:25:12.127Z,1026.01
2018-12-30T21:26:12.111Z,1025.95
2018-12-30T21:27:12.135Z,1025.95
2018-12-30T21:28:12.089Z,1025.99
2018-12-30T21:29:12.078Z,1025.91
2018-12-30T21:30:12.071Z,1025.96
2018-12-30T21:31:12.057Z,1025.93
2018-12-30T21:32:12.081Z,1025.94
2018-12-30T21:33:12.043Z,1025.93
2018-12-30T21:34:12.026Z,1025.95
2018-12-30T21:35:12.016Z,1025.95
2018-12-30T21:36:12.007Z,1025.94
2018-12-30T21:37:11.997Z,1025.96
2018-12-30T21:38:12.018Z,1025.91
2018-12-30T21:39:11.976Z,1025.97
2018-12-30T21:40:11.960Z,1025.91
2018-12-30T21:41:11.953Z,1025.91
2018-12-30T21:42:12.004Z,1025.90
2018-12-30T21:43:12.005Z,1025.89
2018-12-30T21:44:11.945Z,1025.93
2018-12-30T21:45:11.958Z,1025.93
2018-12-30T21:46:11.918Z,1025.94
2018-12-30T21:47:11.887Z,1025.93
2018-12-30T21:48:11.904Z,1025.90
2018-12-30T21:49:11.867Z,1025.94
2018-12-30T21:50:11.879Z,1025.91
2018-12-30T21:51:11.843Z,1025.93
2018-12-30T21:52:11.834Z,1025.92
2018-12-30T21:53:11.835Z,1025.97
2018-12-30T21:54:11.839Z,1025.94
2018-12-30T21:55:11.802Z,1025.93
2018-12-30T21:56:11.793Z,1025.93
2018-12-30T21:57:11.782Z,1025.89
2018-12-30T21:58:11.777Z,1025.91
2018-12-30T21:59:11.782Z,1025.93
2018-12-30T22:00:11.750Z,1025.88
2018-12-30T22:01:11.741Z,1025.90
2018-12-30T22:02:11.728Z,1025.88
2018-12-30T22:03:11.733Z,1025.89
2018-12-30T22:04:11.760Z,1025.85
2018-12-30T22:05:11.698Z,1025.83
2018-12-30T22:06:11.685Z,1025.82
2018-12-30T22:07:11.674Z,1025.77
2018-12-30T22:08:11.664Z,1025.74
2018-12-30T22:09:11.681Z,1025.74
2018-12-30T22:10:17.265Z,1025.73
2018-12-30T22:11:12.630Z,1025.70
2018-12-30T22:12:11.621Z,1025.68
2018-12-30T22:13:11.614Z,1025.73
2018-12-30T22:14:11.628Z,1025.71
2018-12-30T22:15:11.589Z,1025.71
2018-12-30T22:16:11.582Z,1025.68
2018-12-30T22:17:11.591Z,1025.69
2018-12-30T22:18:11.558Z,1025.71
2018-12-30T22:19:11.578Z,1025.68
2018-12-30T22:20:11.537Z,1025.71
2018-12-30T22:21:11.529Z,1025.73
2018-12-30T22:22:11.514Z,1025.71
2018-12-30T22:23:11.515Z,1025.71
2018-12-30T22:24:11.519Z,1025.69
2018-12-30T22:25:11.483Z,1025.78
2018-12-30T22:26:11.480Z,1025.77
2018-12-30T22:27:11.481Z,1025.80
2018-12-30T22:28:11.464Z,1025.78
2018-12-30T22:29:11.466Z,1025.80
2018-12-30T22:30:11.438Z,1025.78
2018-12-30T22:31:11.425Z,1025.81
2018-12-30T22:32:11.422Z,1025.87
2018-12-30T22:33:11.398Z,1025.81
2018-12-30T22:34:11.953Z,1025.91
2018-12-30T22:35:11.387Z,1025.86
2018-12-30T22:36:11.364Z,1025.86
2018-12-30T22:37:11.357Z,1025.89
2018-12-30T22:38:11.347Z,1025.94
2018-12-30T22:39:11.335Z,1025.93
2018-12-30T22:40:11.361Z,1025.96
2018-12-30T22:41:11.316Z,1025.98
2018-12-30T22:42:11.301Z,1025.97
2018-12-30T22:43:11.296Z,1025.96
2018-12-30T22:44:11.282Z,1025.93
2018-12-30T22:45:11.302Z,1026.02
2018-12-30T22:46:11.271Z,1025.98
2018-12-30T22:47:11.248Z,1026.02
2018-12-30T22:48:11.240Z,1025.97
2018-12-30T22:49:11.230Z,1025.97
2018-12-30T22:50:11.216Z,1026.00
2018-12-30T22:51:11.230Z,1025.97
2018-12-30T22:52:11.210Z,1025.96
2018-12-30T22:53:11.187Z,1025.96
2018-12-30T22:54:11.173Z,1025.95
2018-12-30T22:55:11.164Z,1025.97
2018-12-30T22:56:11.355Z,1025.93
2018-12-30T22:57:11.142Z,1025.90
2018-12-30T22:58:11.164Z,1025.90
2018-12-30T22:59:11.132Z,1025.92
2018-12-30T23:00:11.182Z,1025.93
2018-12-30T23:01:11.126Z,1025.92
2018-12-30T23:02:11.089Z,1025.91
2018-12-30T23:03:11.099Z,1025.94
2018-12-30T23:04:11.066Z,1025.91
2018-12-30T23:05:11.056Z,1025.94
2018-12-30T23:06:11.074Z,1025.96
2018-12-30T23:07:11.039Z,1025.92
2018-12-30T23:08:11.026Z,1025.97
2018-12-30T23:09:11.025Z,1026.00
2018-12-30T23:10:11.006Z,1025.97
2018-12-30T23:11:11.018Z,1025.98
2018-12-30T23:12:10.983Z,1025.92
2018-12-30T23:13:10.974Z,1025.96
2018-12-30T23:14:10.963Z,1026.03
2018-12-30T23:15:10.959Z,1026.02
2018-12-30T23:16:10.969Z,1025.99
2018-12-30T23:17:10.931Z,1025.97
2018-12-30T23:18:10.921Z,1025.98
2018-12-30T23:19:10.911Z,1025.97
2018-12-30T23:20:10.896Z,1025.99
2018-12-30T23:21:10.899Z,1026.02
2018-12-30T23:22:10.903Z,1025.97
2018-12-30T23:23:10.893Z,1025.96
2018-12-30T23:24:10.857Z,1025.92
2018-12-30T23:25:10.858Z,1025.91
2018-12-30T23:26:10.833Z,1025.92
2018-12-30T23:27:10.859Z,1025.92
2018-12-30T23:28:10.814Z,1025.90
2018-12-30T23:29:10.892Z,1025.91
2018-12-30T23:30:10.804Z,1025.89
2018-12-30T23:31:10.781Z,1025.93
2018-12-30T23:32:10.768Z,1025.96
2018-12-30T23:33:10.790Z,1025.91
2018-12-30T23:34:10.749Z,1025.94
2018-12-30T23:35:10.746Z,1025.90
2018-12-30T23:36:10.729Z,1025.89
2018-12-30T23:37:10.716Z,1025.91
2018-12-30T23:38:10.706Z,1025.91
2018-12-30T23:39:10.719Z,1025.88
2018-12-30T23:40:10.684Z,1025.90
2018-12-30T23:41:10.687Z,1025.93
2018-12-30T23:42:10.672Z,1025.88
2018-12-30T23:43:10.668Z,1025.95
2018-12-30T23:44:10.666Z,1025.92
2018-12-30T23:45:10.631Z,1025.91
2018-12-30T23:46:10.622Z,1025.90
2018-12-30T23:47:10.616Z,1025.91
2018-12-30T23:48:10.619Z,1025.98
2018-12-30T23:49:10.620Z,1025.94
2018-12-30T23:50:10.581Z,1025.91
2018-12-30T23:51:10.570Z,1025.91
2018-12-30T23:52:10.557Z,1025.92
2018-12-30T23:53:10.548Z,1025.95
2018-12-30T23:54:10.571Z,1025.93
2018-12-30T23:55:10.530Z,1025.95
2018-12-30T23:56:10.515Z,1025.95
2018-12-30T23:57:10.504Z,1025.98
2018-12-30T23:58:10.500Z,1025.98
2018-12-30T23:59:10.523Z,1025.95
